Time;durP1;ratioP1;P1;durP2;ratioP2;P2;SDS_P1;SDS_P2;PMS_P1;PMS_P2;Temp;Humidity;BMP_temperature;BMP_pressure;BME280_temperature;BME280_humidity;BME280_pressure;Samples;Min_cycle;Max_cycle;Signal;HPM_P1;HPM_P2
2023/02/24 00:05:02;;;;;;;20.55;3.63;;;4.00;99.90;;;;;;12477441;28;20045;-38
2023/02/24 00:11:13;;;;;;;26.95;3.80;;;4.00;99.90;;;;;;12488180;28;20103;-38
2023/02/24 00:17:15;;;;;;;23.83;4.00;;;3.90;99.90;;;;;;12490731;28;20054;-38
2023/02/24 00:23:17;;;;;;;24.27;3.65;;;3.90;99.90;;;;;;12484612;28;20069;-38
2023/02/24 00:29:19;;;;;;;26.58;4.00;;;3.80;99.90;;;;;;12486250;28;20041;-37
2023/02/24 00:35:21;;;;;;;28.52;4.45;;;3.80;99.90;;;;;;12489247;28;20050;-38
2023/02/24 00:41:29;;;;;;;23.80;4.07;;;3.90;99.90;;;;;;12484873;28;20053;-37
2023/02/24 00:47:32;;;;;;;22.50;3.35;;;3.80;99.90;;;;;;12499520;28;20058;-38
2023/02/24 00:53:34;;;;;;;21.13;3.25;;;3.80;99.90;;;;;;12481227;28;20148;-37
2023/02/24 00:59:37;;;;;;;23.90;3.65;;;3.80;99.90;;;;;;12485072;28;20137;-38
2023/02/24 01:05:39;;;;;;;23.48;3.42;;;3.90;99.90;;;;;;12483640;28;20045;-37
2023/02/24 01:18:02;;;;;;;33.47;3.95;;;4.00;99.90;;;;;;12480745;28;20061;-38
2023/02/24 01:24:05;;;;;;;17.80;3.42;;;4.00;99.90;;;;;;12494696;28;20048;-38
2023/02/24 01:30:14;;;;;;;22.25;3.30;;;4.00;99.90;;;;;;12486402;28;20557;-38
2023/02/24 01:36:20;;;;;;;21.90;4.47;;;4.00;99.90;;;;;;12446161;28;20048;-38
2023/02/24 01:42:22;;;;;;;24.00;3.97;;;4.00;99.90;;;;;;12478935;28;20045;-37
2023/02/24 01:48:26;;;;;;;19.60;3.03;;;4.00;99.90;;;;;;12483657;28;20041;-37
2023/02/24 01:54:41;;;;;;;20.67;3.10;;;4.00;99.90;;;;;;12486012;28;20135;-38
2023/02/24 02:00:45;;;;;;;18.70;3.08;;;4.00;99.90;;;;;;12499544;28;20056;-37
2023/02/24 02:06:47;;;;;;;16.50;3.20;;;3.90;99.90;;;;;;12504675;28;20045;-38
2023/02/24 02:12:50;;;;;;;20.02;3.45;;;3.90;99.90;;;;;;12507409;28;20057;-37
2023/02/24 02:19:22;;;;;;;18.25;3.80;;;3.90;99.90;;;;;;12504618;28;20050;-38
2023/02/24 02:25:45;;;;;;;22.50;3.42;;;3.90;99.90;;;;;;12455728;28;20508;-37
2023/02/24 02:32:30;;;;;;;16.88;2.95;;;3.90;99.90;;;;;;12448909;28;20069;-37
2023/02/24 02:38:59;;;;;;;23.48;2.83;;;3.90;99.90;;;;;;12449838;28;20073;-36
2023/02/24 02:45:32;;;;;;;17.90;2.90;;;3.90;99.90;;;;;;12429852;28;20045;-37
2023/02/24 02:51:43;;;;;;;27.33;2.83;;;3.70;99.90;;;;;;12445899;28;20053;-38
2023/02/24 02:57:47;;;;;;;18.23;3.42;;;3.70;99.90;;;;;;12460898;28;20144;-37
2023/02/24 03:03:55;;;;;;;13.52;2.55;;;3.70;99.90;;;;;;12447478;28;20042;-37
2023/02/24 03:10:04;;;;;;;21.40;2.40;;;3.50;99.90;;;;;;12451881;28;20064;-38
2023/02/24 03:16:09;;;;;;;12.48;1.90;;;3.50;99.90;;;;;;12499748;28;20510;-38
2023/02/24 03:22:17;;;;;;;14.50;2.00;;;3.40;99.90;;;;;;12480889;28;20409;-38
2023/02/24 03:28:34;;;;;;;16.58;1.73;;;3.30;99.90;;;;;;12488673;28;20050;-37
2023/02/24 03:34:48;;;;;;;12.15;1.88;;;3.20;99.90;;;;;;12487325;28;20052;-38
2023/02/24 03:40:50;;;;;;;18.45;3.13;;;3.20;99.90;;;;;;12492808;28;20042;-37
2023/02/24 03:46:54;;;;;;;16.25;2.53;;;3.10;99.90;;;;;;12493009;28;20518;-36
2023/02/24 04:00:46;;;;;;;13.60;1.90;;;2.80;99.90;;;;;;12346667;28;20101;-80
2023/02/24 04:07:01;;;;;;;6.60;1.52;;;2.80;99.90;;;;;;12354161;28;20089;-80
2023/02/24 04:13:34;;;;;;;9.37;1.43;;;2.60;99.90;;;;;;12307757;28;20089;-79
2023/02/24 04:19:40;;;;;;;16.52;1.75;;;2.50;99.90;;;;;;12330392;28;20295;-80
2023/02/24 04:25:46;;;;;;;13.13;1.45;;;2.40;99.90;;;;;;12322715;28;20144;-80
2023/02/24 04:31:53;;;;;;;12.25;1.42;;;2.30;99.90;;;;;;12324263;28;20046;-81
2023/02/24 04:37:56;;;;;;;11.45;1.92;;;2.20;99.90;;;;;;12305026;28;20050;-80
2023/02/24 04:43:58;;;;;;;12.95;1.40;;;2.00;99.90;;;;;;12333527;28;20046;-80
2023/02/24 04:50:00;;;;;;;13.25;1.85;;;2.00;99.90;;;;;;12320097;28;20042;-79
2023/02/24 04:56:07;;;;;;;8.50;1.30;;;1.90;99.90;;;;;;12346808;28;20055;-81
2023/02/24 05:02:09;;;;;;;9.60;1.52;;;1.90;99.90;;;;;;12330672;28;20046;-81
2023/02/24 05:08:14;;;;;;;15.25;1.40;;;2.00;99.90;;;;;;12336133;28;20539;-81
2023/02/24 05:14:19;;;;;;;8.38;1.55;;;2.10;99.90;;;;;;12339617;28;20058;-80
2023/02/24 05:27:02;;;;;;;9.57;1.33;;;2.20;99.90;;;;;;12240503;28;20106;-79
2023/02/24 05:33:06;;;;;;;6.85;1.63;;;2.20;99.90;;;;;;12314996;28;20046;-80
2023/02/24 05:39:11;;;;;;;4.75;1.33;;;2.30;99.90;;;;;;12344555;28;20054;-79
2023/02/24 05:45:13;;;;;;;8.45;1.00;;;2.50;99.90;;;;;;12332372;28;20051;-79
2023/02/24 05:51:15;;;;;;;10.10;1.85;;;2.50;99.90;;;;;;12308150;28;20545;-79
2023/02/24 05:57:20;;;;;;;10.32;1.65;;;2.50;99.90;;;;;;12341593;28;20057;-81
2023/02/24 06:03:29;;;;;;;5.40;1.60;;;2.40;99.90;;;;;;12326098;28;20055;-80
2023/02/24 06:09:33;;;;;;;15.07;1.95;;;2.30;99.90;;;;;;12319531;28;20071;-80
2023/02/24 06:15:36;;;;;;;11.88;1.95;;;2.30;99.90;;;;;;12320412;28;20459;-80
2023/02/24 06:21:40;;;;;;;8.20;1.58;;;2.30;99.90;;;;;;12318996;28;20054;-79
2023/02/24 06:27:42;;;;;;;16.48;1.70;;;2.30;99.90;;;;;;12321416;28;20105;-80
2023/02/24 06:33:44;;;;;;;5.68;1.70;;;2.30;99.90;;;;;;12322706;28;21126;-81
2023/02/24 06:39:46;;;;;;;9.70;1.40;;;2.30;99.90;;;;;;12310815;28;20057;-80
2023/02/24 06:45:49;;;;;;;10.18;1.60;;;2.40;99.90;;;;;;12321460;28;20138;-81
2023/02/24 06:51:51;;;;;;;7.03;1.60;;;2.40;99.90;;;;;;12314882;28;20043;-80
2023/02/24 06:58:02;;;;;;;9.07;1.67;;;2.40;99.90;;;;;;12348912;28;20142;-80
2023/02/24 07:10:13;;;;;;;9.25;2.00;;;2.40;99.90;;;;;;12352976;28;20068;-80
2023/02/24 07:16:23;;;;;;;14.43;1.77;;;2.40;99.90;;;;;;12322736;28;20051;-80
2023/02/24 07:22:25;;;;;;;19.40;2.25;;;2.50;99.90;;;;;;12315831;28;20048;-80
2023/02/24 07:28:28;;;;;;;13.52;1.77;;;2.50;99.90;;;;;;12328136;28;20293;-80
2023/02/24 07:34:30;;;;;;;12.77;1.75;;;2.50;99.90;;;;;;12302217;28;20471;-80
2023/02/24 07:40:32;;;;;;;10.98;1.48;;;2.50;99.90;;;;;;12337474;28;20406;-79
2023/02/24 07:46:34;;;;;;;15.50;2.10;;;2.50;99.90;;;;;;12342390;28;20043;-80
2023/02/24 07:52:37;;;;;;;8.52;1.92;;;2.50;99.90;;;;;;12302447;28;20055;-80
2023/02/24 07:58:44;;;;;;;13.73;2.33;;;2.50;99.90;;;;;;12343456;28;20058;-80
2023/02/24 08:04:50;;;;;;;8.93;2.03;;;2.60;99.90;;;;;;12316306;28;20137;-80
2023/02/24 08:11:02;;;;;;;9.63;1.95;;;2.60;99.90;;;;;;12341046;28;20069;-81
2023/02/24 08:17:04;;;;;;;10.68;1.48;;;2.60;99.90;;;;;;12314715;28;20064;-80
2023/02/24 08:23:09;;;;;;;11.95;1.50;;;2.70;99.90;;;;;;12303981;28;20047;-79
2023/02/24 08:29:12;;;;;;;14.40;1.88;;;2.70;99.90;;;;;;12313295;28;20559;-80
2023/02/24 08:35:18;;;;;;;11.00;1.48;;;2.80;99.90;;;;;;12323839;28;20051;-81
2023/02/24 08:41:28;;;;;;;6.68;1.38;;;2.80;99.90;;;;;;12332209;28;20047;-80
2023/02/24 08:47:29;;;;;;;8.77;1.48;;;2.90;99.90;;;;;;12313973;28;20062;-80
2023/02/24 08:53:32;;;;;;;9.88;1.83;;;2.90;99.90;;;;;;12308221;28;20039;-80
2023/02/24 08:59:47;;;;;;;14.05;1.60;;;3.00;99.90;;;;;;12314835;28;20647;-80
2023/02/24 09:05:49;;;;;;;9.20;1.50;;;3.00;99.90;;;;;;12316149;28;20462;-80
2023/02/24 09:11:56;;;;;;;13.00;1.75;;;2.90;99.90;;;;;;12314458;28;20129;-80
2023/02/24 09:18:06;;;;;;;8.70;1.73;;;2.80;99.90;;;;;;12315858;28;20058;-79
2023/02/24 09:24:11;;;;;;;12.45;1.90;;;2.80;99.90;;;;;;12303747;28;20503;-80
2023/02/24 09:36:43;;;;;;;14.82;2.33;;;2.70;99.90;;;;;;12309408;28;20487;-80
2023/02/24 09:42:45;;;;;;;6.47;2.05;;;2.60;99.90;;;;;;12298806;28;20039;-79
2023/02/24 09:49:04;;;;;;;14.50;2.25;;;2.40;99.90;;;;;;12321488;28;20051;-79
2023/02/24 09:55:26;;;;;;;8.95;1.90;;;2.40;99.90;;;;;;12334861;28;20197;-79
2023/02/24 10:02:00;;;;;;;7.50;1.98;;;2.50;99.90;;;;;;12312770;28;20074;-80
2023/02/24 10:08:16;;;;;;;10.52;2.78;;;2.50;99.90;;;;;;12330154;28;20043;-80
2023/02/24 10:14:37;;;;;;;6.72;2.38;;;2.50;99.90;;;;;;12315657;28;20499;-79
2023/02/24 10:20:48;;;;;;;10.10;3.50;;;2.50;99.90;;;;;;12319222;28;20055;-79
2023/02/24 10:26:57;;;;;;;5.78;2.30;;;2.50;99.90;;;;;;12338399;28;20063;-79
2023/02/24 10:33:26;;;;;;;9.65;2.45;;;2.40;99.90;;;;;;12336911;28;20387;-80
2023/02/24 10:39:32;;;;;;;6.13;2.13;;;2.40;99.90;;;;;;12322265;28;20054;-79
2023/02/24 10:45:43;;;;;;;9.65;1.90;;;2.50;99.90;;;;;;12314316;28;20043;-79
2023/02/24 10:51:52;;;;;;;9.02;2.35;;;2.60;99.90;;;;;;12296150;28;20058;-79
2023/02/24 10:58:06;;;;;;;9.50;3.00;;;2.70;99.90;;;;;;12325264;28;20084;-80
2023/02/24 11:04:32;;;;;;;10.50;3.00;;;2.70;99.90;;;;;;12322899;28;20039;-79
2023/02/24 11:10:51;;;;;;;9.73;3.13;;;2.70;99.90;;;;;;12332944;28;20137;-80
2023/02/24 11:23:19;;;;;;;7.70;3.45;;;2.50;99.90;;;;;;12336790;28;20050;-78
2023/02/24 11:29:27;;;;;;;7.13;4.07;;;2.50;99.90;;;;;;12342811;28;20128;-79
2023/02/24 11:35:34;;;;;;;12.57;5.05;;;2.40;99.90;;;;;;12322072;28;20121;-79
2023/02/24 11:41:44;;;;;;;9.10;5.00;;;2.30;99.90;;;;;;12376759;28;20058;-81
2023/02/24 11:47:56;;;;;;;12.55;5.97;;;2.30;99.90;;;;;;12366957;28;20050;-79
2023/02/24 11:54:13;;;;;;;12.20;5.55;;;2.20;99.90;;;;;;12328664;28;20049;-79
2023/02/24 12:00:29;;;;;;;9.65;5.80;;;2.20;99.90;;;;;;12340882;28;20473;-78
2023/02/24 12:06:50;;;;;;;8.73;5.88;;;2.20;99.90;;;;;;12343231;28;20423;-79
2023/02/24 12:13:13;;;;;;;11.05;5.60;;;2.30;99.90;;;;;;12325370;28;20059;-79
2023/02/24 12:19:21;;;;;;;10.88;4.38;;;2.30;99.90;;;;;;12309987;28;20066;-79
2023/02/24 12:25:35;;;;;;;8.27;4.07;;;2.30;99.90;;;;;;12286898;28;20086;-79
2023/02/24 12:31:40;;;;;;;8.07;4.13;;;2.30;99.90;;;;;;12316701;28;20138;-79
2023/02/24 12:38:13;;;;;;;6.45;3.80;;;2.30;99.90;;;;;;12331388;28;20051;-79
2023/02/24 12:44:37;;;;;;;5.55;3.65;;;2.30;99.90;;;;;;12327526;28;20052;-79
2023/02/24 12:51:14;;;;;;;6.82;3.60;;;2.30;99.90;;;;;;12309921;28;20066;-79
2023/02/24 12:57:26;;;;;;;6.30;3.38;;;2.30;99.90;;;;;;12288283;28;20329;-78
2023/02/24 13:03:48;;;;;;;5.82;3.25;;;2.30;99.90;;;;;;12331081;28;20138;-79
2023/02/24 13:10:17;;;;;;;5.72;4.03;;;2.30;99.90;;;;;;12335663;28;20061;-79
2023/02/24 13:16:30;;;;;;;8.95;4.00;;;2.20;99.90;;;;;;12348222;28;20047;-78
2023/02/24 13:22:32;;;;;;;7.60;3.60;;;2.30;99.90;;;;;;12314406;28;20047;-80
2023/02/24 13:28:37;;;;;;;6.45;3.70;;;2.30;99.90;;;;;;12323563;28;20047;-79
2023/02/24 13:34:43;;;;;;;5.20;3.50;;;2.40;99.90;;;;;;12309017;28;20046;-79
2023/02/24 13:40:45;;;;;;;5.43;3.22;;;2.50;99.90;;;;;;12308194;28;20055;-79
2023/02/24 13:47:33;;;;;;;6.47;3.35;;;2.60;99.90;;;;;;12322747;28;20077;-80
2023/02/24 13:54:05;;;;;;;5.72;3.17;;;2.70;99.90;;;;;;12204729;29;20049;-80
2023/02/24 14:00:20;;;;;;;5.47;3.42;;;2.80;99.90;;;;;;12355307;28;20047;-78
2023/02/24 14:06:25;;;;;;;7.18;4.35;;;2.70;99.90;;;;;;12305002;28;20129;-78
2023/02/24 14:12:31;;;;;;;9.35;4.68;;;2.80;99.90;;;;;;12323302;28;20465;-78
2023/02/24 14:18:33;;;;;;;12.57;4.82;;;2.90;99.90;;;;;;12343421;28;20055;-77
2023/02/24 14:24:34;;;;;;;7.10;4.97;;;2.90;99.90;;;;;;12315313;28;20031;-78
2023/02/24 14:30:39;;;;;;;7.60;4.90;;;3.00;99.90;;;;;;12304246;28;20055;-80
2023/02/24 14:36:44;;;;;;;8.52;5.13;;;2.90;99.90;;;;;;12344227;28;20074;-78
2023/02/24 14:42:48;;;;;;;12.02;5.22;;;3.00;99.90;;;;;;12330926;28;20100;-79
2023/02/24 14:48:55;;;;;;;8.80;5.55;;;3.10;99.90;;;;;;12311253;28;20155;-78
2023/02/24 14:55:16;;;;;;;9.52;5.05;;;3.20;99.90;;;;;;12308656;28;20058;-79
2023/02/24 15:01:38;;;;;;;9.43;5.07;;;3.10;99.90;;;;;;12325680;28;20085;-79
2023/02/24 15:07:44;;;;;;;14.50;5.45;;;3.20;99.90;;;;;;12326978;28;20149;-78
2023/02/24 15:13:53;;;;;;;11.45;5.40;;;3.20;99.90;;;;;;12312773;28;20142;-79
2023/02/24 15:19:55;;;;;;;14.82;5.20;;;3.30;99.90;;;;;;12327257;28;20054;-79
2023/02/24 15:25:58;;;;;;;12.60;6.03;;;3.30;99.90;;;;;;12318961;28;20537;-79
2023/02/24 15:32:05;;;;;;;14.90;6.65;;;3.30;99.90;;;;;;12342007;28;20059;-79
2023/02/24 15:38:23;;;;;;;11.40;5.95;;;3.40;99.90;;;;;;12310018;28;20519;-79
2023/02/24 15:44:31;;;;;;;13.65;6.22;;;3.50;99.90;;;;;;12322262;28;20051;-78
2023/02/24 15:50:33;;;;;;;14.93;6.22;;;3.60;99.90;;;;;;12331785;28;20506;-79
2023/02/24 15:56:35;;;;;;;10.23;5.20;;;3.70;99.90;;;;;;12294471;28;20133;-78
2023/02/24 16:02:38;;;;;;;11.63;5.07;;;3.60;99.90;;;;;;12328590;28;20511;-79
2023/02/24 16:08:43;;;;;;;6.03;3.92;;;3.70;99.90;;;;;;12314297;28;20042;-78
2023/02/24 16:14:47;;;;;;;10.57;4.15;;;3.70;99.90;;;;;;12312246;28;20082;-77
2023/02/24 16:20:54;;;;;;;9.75;5.10;;;3.70;99.90;;;;;;12304820;28;20454;-78
2023/02/24 16:26:56;;;;;;;8.20;5.07;;;3.70;99.90;;;;;;12329008;28;20058;-79
2023/02/24 16:33:00;;;;;;;10.00;5.03;;;3.70;99.90;;;;;;12298766;28;20058;-78
2023/02/24 16:39:03;;;;;;;7.60;5.40;;;3.70;99.90;;;;;;12329407;28;20125;-78
2023/02/24 16:45:06;;;;;;;13.07;6.40;;;3.80;99.90;;;;;;12319073;28;20078;-78
2023/02/24 16:51:10;;;;;;;14.52;6.80;;;3.90;99.90;;;;;;12302108;28;20042;-77
2023/02/24 16:57:11;;;;;;;16.63;7.03;;;3.90;99.90;;;;;;12311296;28;20208;-79
2023/02/24 17:03:29;;;;;;;16.60;6.70;;;3.80;99.90;;;;;;12324015;28;20051;-78
2023/02/24 17:09:32;;;;;;;15.07;8.27;;;3.90;99.90;;;;;;12329285;28;20055;-79
2023/02/24 17:15:34;;;;;;;17.60;6.93;;;4.10;99.90;;;;;;12327418;28;20496;-79
2023/02/24 17:21:41;;;;;;;10.88;6.03;;;4.20;99.90;;;;;;12326557;28;20178;-78
2023/02/24 17:27:42;;;;;;;9.70;5.80;;;4.20;99.90;;;;;;12308635;28;20062;-78
2023/02/24 17:33:47;;;;;;;13.57;6.40;;;4.20;99.90;;;;;;12332433;28;20054;-79
2023/02/24 17:39:49;;;;;;;9.43;4.63;;;4.30;99.90;;;;;;12332447;28;20422;-78
2023/02/24 17:45:51;;;;;;;7.78;4.45;;;4.20;99.90;;;;;;12358247;28;20130;-78
2023/02/24 17:51:53;;;;;;;7.00;2.78;;;4.20;99.90;;;;;;12346499;28;20078;-78
2023/02/24 17:57:58;;;;;;;5.38;2.30;;;4.20;99.90;;;;;;12362488;28;20070;-78
2023/02/24 18:03:59;;;;;;;6.75;2.20;;;4.30;99.90;;;;;;12327732;28;20039;-78
2023/02/24 18:10:02;;;;;;;6.70;1.40;;;4.30;99.90;;;;;;12352128;28;20098;-79
2023/02/24 18:16:12;;;;;;;4.22;0.90;;;4.40;99.90;;;;;;12322255;28;20558;-78
2023/02/24 18:22:14;;;;;;;7.10;1.23;;;4.40;99.90;;;;;;12377144;23;20074;-36
2023/02/24 18:28:17;;;;;;;5.85;1.00;;;4.30;99.90;;;;;;12416396;28;20073;-35
2023/02/24 18:34:19;;;;;;;7.60;1.40;;;4.30;99.90;;;;;;12439946;28;20054;-35
2023/02/24 18:40:23;;;;;;;10.95;1.50;;;4.20;99.90;;;;;;12444723;28;20077;-35
2023/02/24 18:46:27;;;;;;;13.10;2.03;;;4.20;99.90;;;;;;12445974;28;20048;-36
2023/02/24 18:52:31;;;;;;;8.07;1.85;;;4.20;99.90;;;;;;12427679;28;20064;-35
2023/02/24 18:58:35;;;;;;;13.90;1.97;;;4.00;99.90;;;;;;12427507;28;20144;-35
2023/02/24 19:04:38;;;;;;;11.20;1.83;;;3.90;99.90;;;;;;12423888;28;20042;-35
2023/02/24 19:10:42;;;;;;;13.45;2.38;;;3.90;99.90;;;;;;12432683;28;20057;-35
2023/02/24 19:16:45;;;;;;;11.82;2.03;;;3.90;99.90;;;;;;12437133;28;20060;-35
2023/02/24 19:22:50;;;;;;;13.25;1.85;;;4.00;99.90;;;;;;12427768;28;20042;-35
2023/02/24 19:28:54;;;;;;;13.27;2.67;;;3.90;99.90;;;;;;12439489;28;20042;-36
2023/02/24 19:34:56;;;;;;;22.10;3.23;;;3.80;99.90;;;;;;12444023;28;20042;-36
2023/02/24 19:40:58;;;;;;;15.85;2.22;;;3.80;99.90;;;;;;12460570;28;20172;-36
2023/02/24 19:47:00;;;;;;;14.20;2.10;;;3.80;99.90;;;;;;12441599;28;20103;-36
2023/02/24 19:53:02;;;;;;;20.92;3.70;;;3.80;99.90;;;;;;12428015;28;20578;-35
2023/02/24 19:59:06;;;;;;;14.55;2.13;;;3.90;99.90;;;;;;12441116;28;20081;-35
2023/02/24 20:05:09;;;;;;;13.37;2.70;;;3.90;99.90;;;;;;12437698;28;20046;-35
2023/02/24 20:11:11;;;;;;;13.27;2.00;;;3.90;99.90;;;;;;12442902;28;20057;-35
2023/02/24 20:17:13;;;;;;;17.45;1.98;;;3.90;99.90;;;;;;12444828;28;20050;-35
2023/02/24 20:23:17;;;;;;;12.48;2.08;;;3.90;99.90;;;;;;12438722;28;20181;-35
2023/02/24 20:29:23;;;;;;;16.42;2.70;;;3.80;99.90;;;;;;12442023;28;20452;-35
2023/02/24 20:35:27;;;;;;;15.68;2.17;;;3.80;99.90;;;;;;12440310;28;20064;-36
2023/02/24 20:41:29;;;;;;;13.90;2.83;;;3.80;99.90;;;;;;12442940;28;20096;-36
2023/02/24 20:47:31;;;;;;;17.88;2.78;;;3.80;99.90;;;;;;12439174;28;20077;-36
2023/02/24 20:53:36;;;;;;;15.80;2.08;;;3.70;99.90;;;;;;12425726;28;20148;-35
2023/02/24 20:59:58;;;;;;;13.35;2.58;;;3.70;99.90;;;;;;12428123;28;20061;-36
2023/02/24 21:06:04;;;;;;;13.38;2.70;;;3.70;99.90;;;;;;12437897;28;20116;-36
2023/02/24 21:12:11;;;;;;;19.00;2.75;;;3.70;99.90;;;;;;12439090;28;20053;-35
2023/02/24 21:18:13;;;;;;;20.30;2.55;;;3.70;99.90;;;;;;12430489;28;20070;-35
2023/02/24 21:24:16;;;;;;;15.65;2.60;;;3.60;99.90;;;;;;12420634;28;20116;-35
2023/02/24 21:30:19;;;;;;;15.25;2.75;;;3.70;99.90;;;;;;12418962;28;20842;-35
2023/02/24 21:36:24;;;;;;;11.30;2.15;;;3.70;99.90;;;;;;12435665;28;20100;-35
2023/02/24 21:42:27;;;;;;;17.52;2.03;;;3.70;99.90;;;;;;12424145;28;20057;-35
2023/02/24 21:48:30;;;;;;;22.60;3.38;;;3.70;99.90;;;;;;12441227;28;20112;-36
2023/02/24 21:54:32;;;;;;;15.88;2.53;;;3.70;99.90;;;;;;12402766;28;20053;-35
2023/02/24 22:00:35;;;;;;;19.13;3.85;;;3.70;99.90;;;;;;12425322;28;20500;-35
2023/02/24 22:06:39;;;;;;;19.55;2.63;;;3.60;99.90;;;;;;12416466;28;20165;-35
2023/02/24 22:12:42;;;;;;;22.88;2.80;;;3.70;99.90;;;;;;12432510;28;20421;-36
2023/02/24 22:18:45;;;;;;;20.55;2.38;;;3.70;99.90;;;;;;12423888;28;20054;-36
2023/02/24 22:24:50;;;;;;;26.27;4.45;;;3.70;99.90;;;;;;12447075;28;20204;-36
2023/02/24 22:30:56;;;;;;;19.40;3.08;;;3.70;99.90;;;;;;12453575;28;20094;-36
2023/02/24 22:36:59;;;;;;;19.67;3.63;;;3.70;99.90;;;;;;12431747;28;20165;-36
2023/02/24 22:43:03;;;;;;;11.88;2.30;;;3.60;99.90;;;;;;12430155;28;20452;-36
2023/02/24 22:49:06;;;;;;;15.63;2.65;;;3.60;99.90;;;;;;12443298;28;20485;-36
2023/02/24 22:55:09;;;;;;;16.17;2.35;;;3.40;99.90;;;;;;12412551;28;20050;-36
2023/02/24 23:01:16;;;;;;;16.77;2.08;;;3.40;99.90;;;;;;12430976;28;20092;-37
2023/02/24 23:07:18;;;;;;;16.25;2.28;;;3.40;99.90;;;;;;12444584;28;20449;-35
2023/02/24 23:13:21;;;;;;;15.10;2.75;;;3.30;99.90;;;;;;12429750;28;20128;-35
2023/02/24 23:19:23;;;;;;;14.55;2.58;;;3.40;99.90;;;;;;12444795;28;20050;-36
2023/02/24 23:25:25;;;;;;;17.33;2.47;;;3.40;99.90;;;;;;12443009;28;20057;-36
2023/02/24 23:31:28;;;;;;;12.57;1.70;;;3.40;99.90;;;;;;12448083;28;20041;-36
2023/02/24 23:37:31;;;;;;;18.63;2.78;;;3.40;99.90;;;;;;12424195;28;20077;-36
2023/02/24 23:43:33;;;;;;;12.57;1.98;;;3.30;99.90;;;;;;12428171;28;20049;-35
2023/02/24 23:49:36;;;;;;;18.55;2.65;;;3.40;99.90;;;;;;12438175;28;20058;-36
2023/02/24 23:55:49;;;;;;;20.02;2.60;;;3.40;99.90;;;;;;12426160;28;20050;-36
